Celebrity Century — 9HJI9 — position and weather

sailwx.info

Track history (hours):
 
Tides and Currents Weather Stations Pressure Air Temp Water Temp Dewpoint Dewpoint Depression Visibility Wind Speed Wind Dir Waves Ship Positions

Celebrity Century

Last reported at 2017-Apr-24 11:20 UTC. Time now 2017-Apr-27 01:31 UTC.
Position N 35°57' E 120°40'.

Length 252 m; draft 8 m.

Type: Ship. MMSI: 249054000.

Date/timePositionNaut miles runAvg speedWind from/ knotsBaromVisibWave heightAir tempDewpointWater temp
2017-Apr-24 11:20N 35°57' E 120°40'516.5
2017-Apr-24 11:00N 35°58' E 120°33'816.3
2017-Apr-24 10:31N 36°00' E 120°24'611.9
2017-Apr-24 10:00N 36°02' E 120°17'2 0.2
2017-Apr-23 22:36N 36°02' E 120°19'111.6
2017-Apr-23 22:30N 36°02' E 120°20'612.8
2017-Apr-23 21:59N 36°00' E 120°28'2114.9
2017-Apr-23 20:35N 35°57' E 120°54'715.2
2017-Apr-23 20:09N 35°57' E 121°02'315.4
2017-Apr-23 19:56N 35°57' E 121°06'  
2017-Apr-20 11:33N 35°56' E 120°48'115.2
2017-Apr-20 11:30N 35°56' E 120°47'1115.8
2017-Apr-20 10:49N 35°58' E 120°34'515.6
2017-Apr-20 10:29N 35°59' E 120°27'613.4
2017-Apr-20 10:00N 36°01' E 120°20'4 7.5
2017-Apr-20 09:27N 36°05' E 120°17'1 0.7
2017-Apr-20 07:54N 36°05' E 120°18'0 0.0
2017-Apr-20 07:30N 36°05' E 120°18'0 0.0
2017-Apr-20 07:00N 36°05' E 120°18'0 0.0
2017-Apr-20 06:30N 36°05' E 120°18'0 0.0
2017-Apr-20 06:01N 36°05' E 120°18'0 0.0
2017-Apr-20 05:30N 36°05' E 120°18'0 0.0
2017-Apr-20 04:54N 36°05' E 120°18'0 0.0
2017-Apr-20 03:30N 36°05' E 120°18'0 0.0
2017-Apr-20 02:30N 36°05' E 120°18'0 0.0
2017-Apr-20 02:00N 36°05' E 120°18'3 0.9
2017-Apr-19 22:21N 36°02' E 120°18'3 7.6
2017-Apr-19 22:00N 36°01' E 120°21'4 7.9
2017-Apr-19 21:30N 36°01' E 120°26'5 9.5
2017-Apr-19 21:00N 35°60' E 120°32'  
Track history (hours):
 
Tides and Currents Weather Stations Pressure Air Temp Water Temp Dewpoint Dewpoint Depression Visibility Wind Speed Wind Dir Waves Ship Positions

Celebrity Century

Last reported at 2017-Apr-24 11:20 UTC. Time now 2017-Apr-27 01:31 UTC.
Position N 35°57' E 120°40'.

Length 252 m; draft 8 m.

Type: Ship. MMSI: 249054000.

Date/timePositionNaut miles runAvg speedWind from/ knotsBaromVisibWave heightAir tempDewpointWater temp
2017-Apr-24 11:20N 35°57' E 120°40'516.5
2017-Apr-24 11:00N 35°58' E 120°33'816.3
2017-Apr-24 10:31N 36°00' E 120°24'611.9
2017-Apr-24 10:00N 36°02' E 120°17'2 0.2
2017-Apr-23 22:36N 36°02' E 120°19'111.6
2017-Apr-23 22:30N 36°02' E 120°20'612.8
2017-Apr-23 21:59N 36°00' E 120°28'2114.9
2017-Apr-23 20:35N 35°57' E 120°54'715.2
2017-Apr-23 20:09N 35°57' E 121°02'315.4
2017-Apr-23 19:56N 35°57' E 121°06'  
2017-Apr-20 11:33N 35°56' E 120°48'115.2
2017-Apr-20 11:30N 35°56' E 120°47'1115.8
2017-Apr-20 10:49N 35°58' E 120°34'515.6
2017-Apr-20 10:29N 35°59' E 120°27'613.4
2017-Apr-20 10:00N 36°01' E 120°20'4 7.5
2017-Apr-20 09:27N 36°05' E 120°17'1 0.7
2017-Apr-20 07:54N 36°05' E 120°18'0 0.0
2017-Apr-20 07:30N 36°05' E 120°18'0 0.0
2017-Apr-20 07:00N 36°05' E 120°18'0 0.0
2017-Apr-20 06:30N 36°05' E 120°18'0 0.0
2017-Apr-20 06:01N 36°05' E 120°18'0 0.0
2017-Apr-20 05:30N 36°05' E 120°18'0 0.0
2017-Apr-20 04:54N 36°05' E 120°18'0 0.0
2017-Apr-20 03:30N 36°05' E 120°18'0 0.0
2017-Apr-20 02:30N 36°05' E 120°18'0 0.0
2017-Apr-20 02:00N 36°05' E 120°18'3 0.9
2017-Apr-19 22:21N 36°02' E 120°18'3 7.6
2017-Apr-19 22:00N 36°01' E 120°21'4 7.9
2017-Apr-19 21:30N 36°01' E 120°26'5 9.5
2017-Apr-19 21:00N 35°60' E 120°32'  

Dump ship's entire track history